createdAt,value
2022-10-07T00:00:24.635Z,72.30
2022-10-07T00:04:28.105Z,72.60
2022-10-07T00:08:31.646Z,72.50
2022-10-07T00:12:34.619Z,72.70
2022-10-07T00:16:41.030Z,72.70
2022-10-07T00:20:43.984Z,72.80
2022-10-07T00:24:46.873Z,73.00
2022-10-07T00:28:50.381Z,73.00
2022-10-07T00:32:54.340Z,73.10
2022-10-07T00:36:58.749Z,73.00
2022-10-07T00:41:01.920Z,72.80
2022-10-07T00:45:05.426Z,73.10
2022-10-07T00:49:12.083Z,73.20
2022-10-07T00:53:14.731Z,73.40
2022-10-07T00:57:17.668Z,72.60
2022-10-07T01:01:21.366Z,73.40
2022-10-07T01:05:24.190Z,73.60
2022-10-07T01:09:27.340Z,73.50
2022-10-07T01:13:47.393Z,73.70
2022-10-07T01:18:18.806Z,74.00
2022-10-07T01:22:34.401Z,74.20
2022-10-07T01:26:47.226Z,73.90
2022-10-07T01:30:55.152Z,72.70
2022-10-07T01:34:59.677Z,73.50
2022-10-07T01:39:09.052Z,73.50
2022-10-07T01:43:15.784Z,73.60
2022-10-07T01:47:18.871Z,73.50
2022-10-07T01:51:28.878Z,73.50
2022-10-07T01:55:52.242Z,73.60
2022-10-07T02:00:06.576Z,74.00
2022-10-07T02:04:36.218Z,74.00
2022-10-07T02:08:55.383Z,73.90
2022-10-07T02:13:12.582Z,73.80
2022-10-07T02:17:21.741Z,73.90
2022-10-07T02:21:29.388Z,73.80
2022-10-07T02:25:38.177Z,74.00
2022-10-07T02:29:44.529Z,74.20
2022-10-07T02:33:48.095Z,74.30
2022-10-07T02:37:53.498Z,74.20
2022-10-07T02:42:05.877Z,74.20
2022-10-07T02:46:12.179Z,74.50
2022-10-07T02:50:21.153Z,74.80
2022-10-07T02:54:30.666Z,73.70
2022-10-07T02:58:36.157Z,74.80
2022-10-07T03:02:47.145Z,74.80
2022-10-07T03:06:50.333Z,74.80
2022-10-07T03:10:53.751Z,74.80
2022-10-07T03:14:56.941Z,74.70
2022-10-07T03:18:59.815Z,74.90
2022-10-07T03:23:09.545Z,74.80
2022-10-07T03:27:12.595Z,75.00
2022-10-07T03:31:16.019Z,75.10
2022-10-07T03:35:24.460Z,75.20
2022-10-07T03:39:28.473Z,75.10
2022-10-07T03:43:32.289Z,75.10
2022-10-07T03:47:36.242Z,75.30
2022-10-07T03:51:39.380Z,75.20
2022-10-07T03:55:44.443Z,75.30
2022-10-07T03:59:47.576Z,75.60
2022-10-07T04:03:50.549Z,75.60
2022-10-07T04:07:54.427Z,75.70
2022-10-07T04:11:57.346Z,75.70
2022-10-07T04:16:06.527Z,75.70
2022-10-07T04:20:10.717Z,75.90
2022-10-07T04:24:14.877Z,75.50
2022-10-07T04:28:24.545Z,75.50
2022-10-07T04:32:32.437Z,75.70
2022-10-07T04:36:35.396Z,75.80
2022-10-07T04:40:46.796Z,76.00
2022-10-07T04:44:51.607Z,76.10
2022-10-07T04:48:55.154Z,75.90
2022-10-07T04:53:01.587Z,76.00
2022-10-07T04:57:10.202Z,75.90
2022-10-07T05:01:13.527Z,76.00
2022-10-07T05:05:20.469Z,75.90
2022-10-07T05:09:23.553Z,75.80
2022-10-07T05:13:27.929Z,75.90
2022-10-07T05:17:31.697Z,76.10
2022-10-07T05:21:34.667Z,76.20
2022-10-07T05:25:40.151Z,76.30
2022-10-07T05:29:43.988Z,76.10
2022-10-07T05:33:49.536Z,76.30
2022-10-07T05:37:55.053Z,76.10
2022-10-07T05:41:58.689Z,75.90
2022-10-07T05:46:17.607Z,76.30
2022-10-07T05:50:25.822Z,76.70
2022-10-07T05:54:28.993Z,76.50
2022-10-07T05:58:38.827Z,76.60
2022-10-07T06:02:43.370Z,76.70
2022-10-07T06:06:47.086Z,76.50
2022-10-07T06:11:09.117Z,76.40
2022-10-07T06:15:13.413Z,76.40
2022-10-07T06:19:22.827Z,76.40
2022-10-07T06:23:30.538Z,76.30
2022-10-07T06:27:34.898Z,76.40
2022-10-07T06:31:38.123Z,76.50
2022-10-07T06:35:42.617Z,76.60
2022-10-07T06:39:45.442Z,76.60
2022-10-07T06:43:49.277Z,76.70
2022-10-07T06:47:53.295Z,76.60
2022-10-07T06:51:57.935Z,76.40
2022-10-07T06:56:05.747Z,76.10
2022-10-07T07:00:11.823Z,75.80
2022-10-07T07:04:14.994Z,75.10
2022-10-07T07:08:19.110Z,75.00
2022-10-07T07:12:25.555Z,75.00
2022-10-07T07:16:32.005Z,74.70
2022-10-07T07:20:37.374Z,74.30
2022-10-07T07:24:41.121Z,73.50
2022-10-07T07:28:50.312Z,73.50
2022-10-07T07:32:53.205Z,73.00
2022-10-07T07:36:56.150Z,72.80
2022-10-07T07:41:07.178Z,72.60
2022-10-07T07:45:10.413Z,72.30
2022-10-07T07:49:14.448Z,72.20
2022-10-07T07:53:19.009Z,72.20
2022-10-07T07:57:22.364Z,72.00
2022-10-07T08:01:25.463Z,71.80
2022-10-07T08:05:28.415Z,71.60
2022-10-07T08:09:34.357Z,71.50
2022-10-07T08:13:39.821Z,70.80
2022-10-07T08:17:44.146Z,71.00
2022-10-07T08:21:47.298Z,70.20
2022-10-07T08:26:04.396Z,70.00
2022-10-07T08:30:08.879Z,69.50
2022-10-07T08:34:12.443Z,69.40
2022-10-07T08:38:15.568Z,69.10
2022-10-07T08:42:40.572Z,68.90
2022-10-07T08:47:02.205Z,68.60
2022-10-07T08:51:50.390Z,68.00
2022-10-07T08:55:58.020Z,68.20
2022-10-07T09:00:05.620Z,67.30
2022-10-07T09:04:08.305Z,66.50
2022-10-07T09:08:28.872Z,65.70
2022-10-07T09:12:49.932Z,64.70
2022-10-07T09:16:55.042Z,64.50
2022-10-07T09:20:58.186Z,64.40
2022-10-07T09:25:13.956Z,63.30
2022-10-07T09:29:20.527Z,62.30
2022-10-07T09:33:24.636Z,62.00
2022-10-07T09:37:30.612Z,63.60
2022-10-07T09:41:38.421Z,61.20
2022-10-07T09:45:47.021Z,60.50
2022-10-07T09:49:53.153Z,59.20
2022-10-07T09:54:05.701Z,59.70
2022-10-07T09:58:26.400Z,58.60
2022-10-07T10:02:29.407Z,58.30
2022-10-07T10:06:32.622Z,57.70
2022-10-07T10:10:36.662Z,57.70
2022-10-07T10:14:52.385Z,58.10
2022-10-07T10:19:02.352Z,58.00
2022-10-07T10:23:29.104Z,56.80
2022-10-07T10:27:56.532Z,57.20
2022-10-07T10:32:02.239Z,56.20
2022-10-07T10:36:23.777Z,55.70
2022-10-07T10:40:41.320Z,56.90
2022-10-07T10:44:58.744Z,55.60
2022-10-07T10:49:29.365Z,55.30
2022-10-07T10:54:12.467Z,54.60
2022-10-07T10:58:30.593Z,56.00
2022-10-07T11:02:43.809Z,55.00
2022-10-07T11:07:14.964Z,53.70
2022-10-07T11:11:19.917Z,54.90
2022-10-07T11:15:51.726Z,53.50
2022-10-07T11:20:04.737Z,53.60
2022-10-07T11:24:19.165Z,53.90
2022-10-07T11:28:26.902Z,52.80
2022-10-07T11:32:56.006Z,52.70
2022-10-07T11:37:31.755Z,52.60
2022-10-07T11:41:46.400Z,52.60
2022-10-07T11:45:54.425Z,53.30
2022-10-07T11:50:07.893Z,53.30
2022-10-07T11:54:16.433Z,52.30
2022-10-07T11:58:38.045Z,51.90
2022-10-07T12:02:44.176Z,52.70
2022-10-07T12:07:05.856Z,52.60
2022-10-07T12:11:11.514Z,53.50
2022-10-07T12:15:30.341Z,52.50
2022-10-07T12:19:33.585Z,52.50
2022-10-07T12:23:38.215Z,51.40
2022-10-07T12:27:46.942Z,51.20
2022-10-07T12:31:50.221Z,52.30
2022-10-07T12:35:54.717Z,51.40
2022-10-07T12:39:58.981Z,51.90
2022-10-07T12:44:22.745Z,52.00
2022-10-07T12:48:35.118Z,51.80
2022-10-07T12:52:52.188Z,50.80
2022-10-07T12:56:55.139Z,51.30
2022-10-07T13:01:14.362Z,50.60
2022-10-07T13:05:51.389Z,51.10
2022-10-07T13:10:03.313Z,51.30
2022-10-07T13:14:38.514Z,49.80
2022-10-07T13:18:48.386Z,50.60
2022-10-07T13:22:52.028Z,49.30
2022-10-07T13:26:56.260Z,49.50
2022-10-07T13:31:21.165Z,48.40
2022-10-07T13:35:34.064Z,48.30
2022-10-07T13:39:39.667Z,48.00
2022-10-07T13:43:44.520Z,48.00
2022-10-07T13:47:47.629Z,47.70
2022-10-07T13:51:55.446Z,47.50
2022-10-07T13:56:22.232Z,47.80
2022-10-07T14:00:25.929Z,48.40
2022-10-07T14:04:33.118Z,47.20
2022-10-07T14:08:50.712Z,46.70
2022-10-07T14:12:59.989Z,47.40
2022-10-07T14:17:16.705Z,46.20
2022-10-07T14:21:19.688Z,46.00
2022-10-07T14:25:31.432Z,45.70
2022-10-07T14:29:37.894Z,44.70
2022-10-07T14:34:04.027Z,44.40
2022-10-07T14:38:20.692Z,44.10
2022-10-07T14:42:28.728Z,44.60
2022-10-07T14:46:31.843Z,44.00
2022-10-07T14:50:35.986Z,43.80
2022-10-07T14:54:40.662Z,43.40
2022-10-07T14:58:43.487Z,43.00
2022-10-07T15:02:48.013Z,44.60
2022-10-07T15:06:51.246Z,44.60
2022-10-07T15:10:54.095Z,44.50
2022-10-07T15:14:58.365Z,44.20
2022-10-07T15:19:02.161Z,44.20
2022-10-07T15:23:05.773Z,45.10
2022-10-07T15:27:10.010Z,45.70
2022-10-07T15:31:14.221Z,46.30
2022-10-07T15:35:17.064Z,47.30
2022-10-07T15:39:19.769Z,47.90
2022-10-07T15:43:25.400Z,48.60
2022-10-07T15:47:28.284Z,49.20
2022-10-07T15:51:40.177Z,49.90
2022-10-07T15:55:54.948Z,50.00
2022-10-07T15:59:57.730Z,50.10
2022-10-07T16:04:03.324Z,50.50
2022-10-07T16:08:06.444Z,51.30
2022-10-07T16:12:09.225Z,51.20
2022-10-07T16:16:17.753Z,51.60
2022-10-07T16:20:20.645Z,51.70
2022-10-07T16:24:23.662Z,52.30
2022-10-07T16:28:45.283Z,52.70
2022-10-07T16:32:49.567Z,53.20
2022-10-07T16:36:52.605Z,53.80
2022-10-07T16:40:55.304Z,54.80
2022-10-07T16:44:58.363Z,55.60
2022-10-07T16:49:02.984Z,56.20
2022-10-07T16:53:11.921Z,56.90
2022-10-07T16:57:18.080Z,57.50
2022-10-07T17:01:23.811Z,58.20
2022-10-07T17:05:31.550Z,59.00
2022-10-07T17:09:34.393Z,59.80
2022-10-07T17:13:40.492Z,60.30
2022-10-07T17:17:43.700Z,60.60
2022-10-07T17:21:48.067Z,60.80
2022-10-07T17:25:50.825Z,61.30
2022-10-07T17:29:53.921Z,61.20
2022-10-07T17:33:58.744Z,61.40
2022-10-07T17:38:03.093Z,61.40
2022-10-07T17:42:06.010Z,61.20
2022-10-07T17:46:12.896Z,61.20
2022-10-07T17:50:16.182Z,61.10
2022-10-07T17:54:18.883Z,61.10
2022-10-07T17:58:21.655Z,61.10
2022-10-07T18:02:24.761Z,61.30
2022-10-07T18:06:30.332Z,61.50
2022-10-07T18:10:33.290Z,61.40
2022-10-07T18:14:55.523Z,61.50
2022-10-07T18:18:59.739Z,61.40
2022-10-07T18:23:12.205Z,61.70
2022-10-07T18:27:15.638Z,62.20
2022-10-07T18:31:19.604Z,62.30
2022-10-07T18:35:22.617Z,62.40
2022-10-07T18:39:27.811Z,62.40
2022-10-07T18:43:31.855Z,62.20
2022-10-07T18:47:34.946Z,62.60
2022-10-07T18:51:37.929Z,62.70
2022-10-07T18:55:40.729Z,62.70
2022-10-07T18:59:43.551Z,62.80
2022-10-07T19:03:46.519Z,63.20
2022-10-07T19:07:49.775Z,63.30
2022-10-07T19:11:52.629Z,63.20
2022-10-07T19:15:55.613Z,63.30
2022-10-07T19:20:01.153Z,63.60
2022-10-07T19:24:04.552Z,63.50
2022-10-07T19:28:07.348Z,63.80
2022-10-07T19:32:10.240Z,63.90
2022-10-07T19:36:14.947Z,63.80
2022-10-07T19:40:17.912Z,64.00
2022-10-07T19:44:21.093Z,64.40
2022-10-07T19:48:23.814Z,64.90
2022-10-07T19:52:27.627Z,65.20
2022-10-07T19:56:35.004Z,65.60
2022-10-07T20:00:37.698Z,66.10
2022-10-07T20:04:42.174Z,66.10
2022-10-07T20:08:47.069Z,65.70
2022-10-07T20:12:51.601Z,65.50
2022-10-07T20:16:57.587Z,65.30
2022-10-07T20:21:02.147Z,65.90
2022-10-07T20:25:05.977Z,66.10
2022-10-07T20:29:10.336Z,66.30
2022-10-07T20:33:13.061Z,66.40
2022-10-07T20:37:16.624Z,66.90
2022-10-07T20:41:57.483Z,67.00
2022-10-07T20:46:00.834Z,67.20
2022-10-07T20:50:05.857Z,67.20
2022-10-07T20:54:08.555Z,67.40
2022-10-07T20:58:11.273Z,67.50
2022-10-07T21:02:15.752Z,67.60
2022-10-07T21:06:19.008Z,68.00
2022-10-07T21:10:21.969Z,68.20
2022-10-07T21:14:24.761Z,68.40
2022-10-07T21:18:29.896Z,68.70
2022-10-07T21:22:32.962Z,69.20
2022-10-07T21:26:36.918Z,69.30
2022-10-07T21:30:40.229Z,69.50
2022-10-07T21:34:45.214Z,69.60
2022-10-07T21:38:53.510Z,69.90
2022-10-07T21:42:56.248Z,70.30
2022-10-07T21:47:00.102Z,70.30
2022-10-07T21:51:08.600Z,70.40
2022-10-07T21:55:12.302Z,70.70
2022-10-07T21:59:15.411Z,70.90
2022-10-07T22:03:18.704Z,71.10
2022-10-07T22:07:40.131Z,71.10
2022-10-07T22:11:43.041Z,71.20
2022-10-07T22:15:45.728Z,71.30
2022-10-07T22:19:49.452Z,71.60
2022-10-07T22:23:59.228Z,71.70
2022-10-07T22:28:02.493Z,71.90
2022-10-07T22:32:06.173Z,71.70
2022-10-07T22:36:12.072Z,71.70
2022-10-07T22:40:14.808Z,71.60
2022-10-07T22:44:17.548Z,71.60
2022-10-07T22:48:20.323Z,71.70
2022-10-07T22:52:23.033Z,71.80
2022-10-07T22:56:28.259Z,71.90
2022-10-07T23:00:33.254Z,72.20
2022-10-07T23:04:37.433Z,72.40
2022-10-07T23:08:40.481Z,72.50
2022-10-07T23:12:43.750Z,72.80
2022-10-07T23:16:46.622Z,72.80
2022-10-07T23:21:03.271Z,72.80
2022-10-07T23:25:06.733Z,73.30
2022-10-07T23:29:11.702Z,73.10
2022-10-07T23:33:16.472Z,73.10
2022-10-07T23:37:19.232Z,73.20
2022-10-07T23:41:27.214Z,73.30
2022-10-07T23:45:30.037Z,73.50
2022-10-07T23:49:32.814Z,73.10
2022-10-07T23:53:35.970Z,73.00
2022-10-07T23:57:39.908Z,73.00
